Time;durP1;ratioP1;P1;durP2;ratioP2;P2;SDS_P1;SDS_P2;PMS_P1;PMS_P2;Temp;Humidity;BMP_temperature;BMP_pressure;BME280_temperature;BME280_humidity;BME280_pressure;Samples;Min_cycle;Max_cycle;Signal;HPM_P1;HPM_P2
2021/12/12 00:02:19;;;;;;;17.02;8.05;;;;;;;-0.45;90.75;100237.50;4421433;32;20086;-69
2021/12/12 00:04:48;;;;;;;21.37;10.02;;;;;;;-0.51;91.00;100244.22;4421696;32;20225;-69
2021/12/12 00:07:21;;;;;;;21.62;9.50;;;;;;;-0.54;91.10;100238.94;4421572;32;20136;-69
2021/12/12 00:09:53;;;;;;;14.45;7.53;;;;;;;-0.54;91.22;100240.66;4421759;32;20174;-69
2021/12/12 00:12:28;;;;;;;21.73;8.40;;;;;;;-0.49;90.87;100249.47;4421838;32;20089;-69
2021/12/12 00:14:56;;;;;;;20.77;9.13;;;;;;;-0.50;91.04;100266.69;4421739;32;20158;-69
2021/12/12 00:17:26;;;;;;;20.40;9.13;;;;;;;-0.50;90.90;100247.69;4421603;32;20503;-69
2021/12/12 00:19:54;;;;;;;23.10;10.55;;;;;;;-0.50;90.85;100250.28;4421682;32;20112;-69
2021/12/12 00:22:25;;;;;;;19.10;9.63;;;;;;;-0.55;91.11;100257.91;4421586;32;20633;-69
2021/12/12 00:24:54;;;;;;;15.63;8.32;;;;;;;-0.56;91.09;100258.75;4421493;32;20660;-69
2021/12/12 00:27:21;;;;;;;18.02;9.15;;;;;;;-0.55;90.88;100257.91;4421630;32;20081;-69
2021/12/12 00:29:50;;;;;;;22.30;10.65;;;;;;;-0.52;90.89;100259.72;4421666;32;20093;-69
2021/12/12 00:32:19;;;;;;;25.37;10.23;;;;;;;-0.53;91.00;100255.34;4421364;32;20124;-70
2021/12/12 00:34:54;;;;;;;21.23;10.32;;;;;;;-0.55;91.00;100263.09;4421787;32;20462;-69
2021/12/12 00:37:21;;;;;;;23.42;8.93;;;;;;;-0.55;90.96;100252.72;4421438;32;20760;-69
2021/12/12 00:39:52;;;;;;;17.65;9.27;;;;;;;-0.56;90.98;100263.91;4421364;32;20093;-69
2021/12/12 00:42:26;;;;;;;25.00;11.10;;;;;;;-0.57;90.73;100243.16;4421338;32;20089;-69
2021/12/12 00:44:59;;;;;;;17.90;8.45;;;;;;;-0.58;90.73;100244.88;4421527;32;20085;-69
2021/12/12 00:47:26;;;;;;;21.80;9.48;;;;;;;-0.57;90.60;100251.78;4421402;32;20100;-69
2021/12/12 00:50:12;;;;;;;22.30;10.73;;;;;;;-0.60;90.72;100250.81;4421267;32;20503;-69
2021/12/12 00:52:43;;;;;;;16.65;8.13;;;;;;;-0.58;90.59;100247.47;4421224;32;20123;-69
2021/12/12 00:55:12;;;;;;;18.67;8.95;;;;;;;-0.60;90.72;100251.72;4421262;32;20097;-69
2021/12/12 00:57:39;;;;;;;27.52;11.23;;;;;;;-0.57;90.53;100250.91;4421171;32;20085;-69
2021/12/12 01:00:10;;;;;;;18.30;8.85;;;;;;;-0.63;90.87;100261.97;4421160;32;20093;-69
2021/12/12 01:02:37;;;;;;;23.23;11.50;;;;;;;-0.62;90.71;100255.09;4421176;32;20089;-69
2021/12/12 01:05:07;;;;;;;28.62;9.43;;;;;;;-0.68;90.79;100266.09;4421075;32;20174;-69
2021/12/12 01:07:39;;;;;;;19.40;8.85;;;;;;;-0.60;90.44;100277.59;4406933;32;20070;-69
2021/12/12 01:10:13;;;;;;;18.33;8.15;;;;;;;-0.57;90.07;100282.84;4421360;32;20557;-69
2021/12/12 01:12:41;;;;;;;19.52;9.50;;;;;;;-0.60;90.09;100277.59;4421152;32;20152;-69
2021/12/12 01:15:27;;;;;;;23.52;11.23;;;;;;;-0.58;89.96;100287.97;4421056;32;20429;-69
2021/12/12 01:17:58;;;;;;;16.25;8.52;;;;;;;-0.63;90.25;100281.81;4421086;32;20077;-69
2021/12/12 01:20:38;;;;;;;17.80;8.75;;;;;;;-0.64;90.14;100295.53;4421014;32;20082;-69
2021/12/12 01:23:14;;;;;;;21.10;9.98;;;;;;;-0.62;89.91;100276.66;4420935;31;20125;-69
2021/12/12 01:25:44;;;;;;;29.03;12.60;;;;;;;-0.62;89.87;100274.06;4421170;32;20089;-69
2021/12/12 01:28:16;;;;;;;31.35;12.68;;;;;;;-0.63;89.90;100277.50;4420799;32;20081;-69
2021/12/12 01:30:45;;;;;;;26.40;11.77;;;;;;;-0.67;90.26;100286.00;4421022;32;20078;-69
2021/12/12 01:33:21;;;;;;;35.20;12.25;;;;;;;-0.71;90.25;100281.53;4420762;32;20093;-69
2021/12/12 01:35:51;;;;;;;22.85;9.73;;;;;;;-0.66;89.96;100280.00;4420827;32;20453;-69
2021/12/12 01:41:05;;;;;;;29.95;9.63;;;;;;;-0.67;89.90;100287.69;4420887;32;20081;-69
2021/12/12 01:43:45;;;;;;;20.80;9.77;;;;;;;-0.61;89.31;100282.72;4420813;32;20128;-69
2021/12/12 01:46:23;;;;;;;19.65;10.07;;;;;;;-0.68;89.59;100283.34;4420958;32;20453;-69
2021/12/12 01:49:06;;;;;;;32.28;14.18;;;;;;;-0.68;89.40;100304.91;4420663;32;20146;-69
2021/12/12 01:51:33;;;;;;;31.48;12.63;;;;;;;-0.64;89.31;100293.84;4420635;32;20110;-69
2021/12/12 01:54:04;;;;;;;27.62;11.25;;;;;;;-0.64;89.34;100305.91;4420681;32;20166;-69
2021/12/12 01:56:42;;;;;;;35.67;13.43;;;;;;;-0.65;89.16;100305.03;4420735;32;20153;-69
2021/12/12 01:59:11;;;;;;;27.25;11.77;;;;;;;-0.66;89.29;100308.44;4420713;32;20153;-69
2021/12/12 02:01:52;;;;;;;25.20;9.70;;;;;;;-0.63;89.17;100310.25;4420594;32;20097;-69
2021/12/12 02:04:25;;;;;;;26.50;12.80;;;;;;;-0.70;89.50;100296.25;4420580;32;20735;-69
2021/12/12 02:06:54;;;;;;;26.48;10.82;;;;;;;-0.64;89.20;100291.25;4420518;32;20449;-69
2021/12/12 02:09:23;;;;;;;24.45;10.80;;;;;;;-0.59;88.74;100304.34;4420653;32;20138;-69
2021/12/12 02:11:54;;;;;;;24.30;10.32;;;;;;;-0.62;88.74;100284.44;4420566;32;20093;-69
2021/12/12 02:14:22;;;;;;;22.35;10.05;;;;;;;-0.67;89.14;100286.00;4420417;32;20381;-69
2021/12/12 02:17:34;;;;;;;23.48;10.18;;;;;;;-0.63;88.87;100277.50;4420385;32;20097;-69
2021/12/12 02:20:18;;;;;;;27.00;11.02;;;;;;;-0.57;88.52;100277.66;4341848;32;20178;-69
2021/12/12 02:36:32;;;;;;;20.08;9.95;;;;;;;-0.62;88.62;100265.44;4420194;32;20169;-69
2021/12/12 02:39:05;;;;;;;20.00;7.95;;;;;;;-0.59;88.36;100263.81;4420127;32;20105;-69
2021/12/12 02:41:32;;;;;;;21.45;9.88;;;;;;;-0.55;88.33;100264.78;4420127;32;20153;-69
2021/12/12 02:44:03;;;;;;;25.27;10.63;;;;;;;-0.59;88.28;100261.22;4420149;32;20498;-69
2021/12/12 02:46:35;;;;;;;13.30;7.82;;;;;;;-0.56;88.19;100253.56;4420055;32;20109;-69
2021/12/12 02:49:09;;;;;;;24.15;10.20;;;;;;;-0.52;88.01;100270.94;4420104;32;20126;-69
2021/12/12 02:51:40;;;;;;;19.83;11.12;;;;;;;-0.58;88.31;100262.97;4420292;32;20104;-69
2021/12/12 02:54:10;;;;;;;30.10;13.73;;;;;;;-0.56;88.14;100263.91;4420145;32;20512;-69
2021/12/12 02:56:42;;;;;;;26.62;10.65;;;;;;;-0.54;87.96;100279.47;4420113;32;20112;-69
2021/12/12 02:59:14;;;;;;;24.35;12.15;;;;;;;-0.55;87.96;100262.22;4420063;32;20544;-69
2021/12/12 03:01:51;;;;;;;27.62;11.30;;;;;;;-0.52;87.69;100264.88;4420457;32;20699;-69
2021/12/12 03:04:19;;;;;;;23.65;11.57;;;;;;;-0.56;87.77;100263.03;4420130;32;20111;-69
2021/12/12 03:06:46;;;;;;;21.20;9.75;;;;;;;-0.53;87.41;100264.03;4419898;32;20148;-69
2021/12/12 03:09:24;;;;;;;25.58;11.65;;;;;;;-0.55;87.83;100275.16;4419947;32;20140;-69
2021/12/12 03:12:13;;;;;;;22.58;10.60;;;;;;;-0.60;87.94;100274.09;4419805;32;20100;-69
2021/12/12 03:14:40;;;;;;;16.75;7.53;;;;;;;-0.58;87.47;100275.91;4419923;32;20108;-69
2021/12/12 03:17:11;;;;;;;24.37;9.77;;;;;;;-0.57;87.53;100277.66;4419793;32;20121;-69
2021/12/12 03:19:39;;;;;;;20.80;8.57;;;;;;;-0.57;87.24;100276.78;4419813;32;20413;-70
2021/12/12 03:22:09;;;;;;;24.52;11.10;;;;;;;-0.56;87.21;100288.94;4419744;32;20153;-69
2021/12/12 03:24:36;;;;;;;22.50;8.98;;;;;;;-0.61;87.44;100275.81;4419545;32;20082;-69
2021/12/12 03:27:09;;;;;;;22.20;10.30;;;;;;;-0.62;87.28;100275.78;4471766;31;20109;-69
2021/12/12 03:29:39;;;;;;;31.15;10.43;;;;;;;-0.58;87.02;100287.97;4419641;32;20096;-69
2021/12/12 03:32:15;;;;;;;23.48;10.27;;;;;;;-0.59;86.98;100297.47;4419813;32;20078;-70
2021/12/12 03:34:47;;;;;;;13.07;6.78;;;;;;;-0.63;87.05;100316.31;4419602;32;20542;-70
2021/12/12 03:37:17;;;;;;;34.80;11.70;;;;;;;-0.64;86.99;100305.91;4419473;32;20120;-70
2021/12/12 03:39:47;;;;;;;20.27;10.93;;;;;;;-0.60;86.72;100328.44;4421831;32;20168;-70
2021/12/12 03:42:18;;;;;;;28.38;10.93;;;;;;;-0.65;86.73;100330.03;4421937;32;20561;-70
2021/12/12 03:44:47;;;;;;;27.67;10.55;;;;;;;-0.66;86.63;100323.97;4422016;32;20069;-70
2021/12/12 03:47:19;;;;;;;17.67;8.77;;;;;;;-0.64;86.45;100322.28;4421708;32;20568;-70
2021/12/12 03:49:48;;;;;;;13.30;8.45;;;;;;;-0.65;86.29;100340.38;4421966;32;20093;-70
2021/12/12 03:52:18;;;;;;;23.83;10.00;;;;;;;-0.63;85.90;100326.66;4421811;32;20109;-70
2021/12/12 03:54:46;;;;;;;31.45;11.48;;;;;;;-0.66;86.01;100336.03;4421838;32;20086;-70
2021/12/12 03:57:17;;;;;;;24.10;9.80;;;;;;;-0.70;86.09;100340.22;4421870;32;20102;-70
2021/12/12 03:59:45;;;;;;;12.50;6.15;;;;;;;-0.68;85.73;100353.22;4421940;32;20089;-70
2021/12/12 04:02:12;;;;;;;22.70;10.77;;;;;;;-0.72;85.98;100341.87;4421757;32;20124;-70
2021/12/12 04:04:43;;;;;;;16.48;8.40;;;;;;;-0.74;85.77;100357.38;4421759;32;20082;-70
2021/12/12 04:07:15;;;;;;;27.77;10.98;;;;;;;-0.74;85.82;100359.94;4421840;32;20090;-70
2021/12/12 04:09:44;;;;;;;20.95;10.02;;;;;;;-0.80;86.08;100366.63;4421631;31;20089;-70
2021/12/12 04:12:14;;;;;;;19.08;8.73;;;;;;;-0.76;85.42;100384.00;4421564;32;20428;-70
2021/12/12 04:14:42;;;;;;;20.50;9.70;;;;;;;-0.72;85.18;100368.63;4421578;32;20517;-70
2021/12/12 04:17:14;;;;;;;23.08;11.20;;;;;;;-0.78;85.33;100385.66;4421731;32;20086;-70
2021/12/12 04:19:43;;;;;;;30.95;11.73;;;;;;;-0.77;85.22;100382.25;4421551;32;20106;-70
2021/12/12 04:22:11;;;;;;;21.92;9.55;;;;;;;-0.80;85.34;100371.81;4421611;31;20138;-70
2021/12/12 04:24:42;;;;;;;23.50;11.30;;;;;;;-0.82;85.30;100389.84;4421349;32;20124;-70
2021/12/12 04:27:13;;;;;;;23.40;9.68;;;;;;;-0.80;85.11;100384.75;4421613;32;20089;-70
2021/12/12 04:29:44;;;;;;;20.30;8.85;;;;;;;-0.79;85.18;100396.84;4421468;32;20450;-70
2021/12/12 04:32:14;;;;;;;27.58;11.40;;;;;;;-0.81;85.21;100390.75;4421507;32;20082;-70
2021/12/12 04:34:46;;;;;;;23.27;12.15;;;;;;;-0.83;85.15;100401.03;4421630;32;20081;-70
2021/12/12 04:37:15;;;;;;;20.83;10.02;;;;;;;-0.81;84.89;100385.56;4421310;32;20117;-70
2021/12/12 04:39:48;;;;;;;29.83;13.80;;;;;;;-0.83;84.85;100400.16;4421284;32;20119;-70
2021/12/12 04:42:19;;;;;;;28.33;10.52;;;;;;;-0.83;84.85;100400.16;4421490;32;20078;-70
2021/12/12 04:44:49;;;;;;;22.65;10.95;;;;;;;-0.85;84.95;100420.81;4421576;32;20094;-70
2021/12/12 04:50:33;;;;;;;34.80;13.50;;;;;;;-0.85;84.82;100404.38;4420939;32;20441;-70
2021/12/12 04:53:10;;;;;;;24.48;10.57;;;;;;;-0.85;84.86;100400.13;4421520;32;20073;-70
2021/12/12 04:55:47;;;;;;;37.63;15.70;;;;;;;-0.88;85.01;100404.25;4421274;32;20421;-70
2021/12/12 04:58:17;;;;;;;28.60;12.07;;;;;;;-0.90;85.25;100419.75;4421377;32;20116;-70
2021/12/12 05:01:13;;;;;;;24.65;10.68;;;;;;;-0.89;84.90;100390.47;4421130;31;20089;-70
2021/12/12 05:03:51;;;;;;;38.20;16.35;;;;;;;-0.89;84.81;100389.59;4426710;32;20093;-70
2021/12/12 05:06:26;;;;;;;24.70;10.10;;;;;;;-0.95;85.32;100390.28;4421197;32;20480;-70
2021/12/12 05:09:06;;;;;;;26.77;11.55;;;;;;;-0.92;85.06;100373.97;4420971;32;20094;-70
2021/12/12 05:11:59;;;;;;;33.38;12.82;;;;;;;-0.88;84.71;100387.06;4421316;32;20443;-70
2021/12/12 05:14:33;;;;;;;25.05;11.38;;;;;;;-0.89;84.93;100376.66;4421247;32;20081;-70
2021/12/12 05:17:06;;;;;;;21.52;9.40;;;;;;;-0.89;84.68;100402.50;4421113;32;20161;-70
2021/12/12 05:19:34;;;;;;;25.90;11.70;;;;;;;-0.91;84.88;100404.19;4421000;32;20089;-69
2021/12/12 05:22:10;;;;;;;21.95;10.80;;;;;;;-0.98;85.17;100388.44;4421018;32;20511;-69
2021/12/12 05:24:40;;;;;;;28.15;10.98;;;;;;;-0.89;84.75;100407.69;4420957;32;20093;-69
2021/12/12 05:27:15;;;;;;;26.65;10.68;;;;;;;-0.94;84.94;100393.75;4421073;32;20105;-69
2021/12/12 05:29:54;;;;;;;24.90;10.27;;;;;;;-0.97;85.00;100399.66;4420930;32;20082;-69
2021/12/12 05:32:23;;;;;;;25.50;12.70;;;;;;;-0.91;84.68;100391.25;4420898;32;20123;-69
2021/12/12 05:34:51;;;;;;;31.17;13.52;;;;;;;-0.95;84.84;100382.50;4420977;32;20428;-69
2021/12/12 05:37:19;;;;;;;39.30;14.77;;;;;;;-0.97;84.99;100400.53;4420857;32;20140;-69
2021/12/12 05:39:47;;;;;;;25.90;12.10;;;;;;;-0.99;85.28;100380.63;4420964;32;20521;-69
2021/12/12 05:42:15;;;;;;;30.45;12.60;;;;;;;-0.94;84.90;100393.75;4420835;32;20109;-69
2021/12/12 05:44:43;;;;;;;29.55;12.65;;;;;;;-0.93;84.67;100382.56;4420680;32;20443;-69
2021/12/12 05:47:11;;;;;;;26.65;11.10;;;;;;;-0.95;84.76;100382.50;4420724;32;20112;-69
2021/12/12 05:49:40;;;;;;;16.87;8.20;;;;;;;-0.94;84.66;100378.22;4420672;32;20098;-69
2021/12/12 05:52:11;;;;;;;25.75;9.20;;;;;;;-0.90;84.30;100385.25;4420868;32;20089;-69
2021/12/12 05:54:39;;;;;;;18.73;9.40;;;;;;;-0.89;83.99;100387.00;4420628;32;20129;-69
2021/12/12 05:57:09;;;;;;;22.10;10.68;;;;;;;-0.89;84.04;100387.00;4420879;32;20089;-69
2021/12/12 05:59:39;;;;;;;19.58;9.18;;;;;;;-0.91;84.19;100379.19;4420837;32;20101;-69
2021/12/12 06:02:08;;;;;;;26.58;11.10;;;;;;;-0.91;84.11;100386.97;4420024;32;20658;-69
2021/12/12 06:04:36;;;;;;;20.80;9.45;;;;;;;-0.94;84.26;100391.16;4420619;32;20168;-69
2021/12/12 06:07:07;;;;;;;24.52;11.23;;;;;;;-0.92;84.03;100392.94;4420525;32;20085;-69
2021/12/12 06:09:36;;;;;;;21.30;9.15;;;;;;;-0.96;84.14;100407.47;4420729;32;20209;-69
2021/12/12 06:12:05;;;;;;;21.00;9.70;;;;;;;-0.98;84.19;100392.75;4420511;32;20130;-69
2021/12/12 06:14:37;;;;;;;22.15;8.00;;;;;;;-1.00;84.32;100415.94;4420492;32;20099;-70
2021/12/12 06:17:09;;;;;;;16.87;8.40;;;;;;;-0.97;84.21;100417.78;4416738;32;113641;-69
2021/12/12 06:19:38;;;;;;;19.77;9.63;;;;;;;-0.96;83.89;100423.00;4420451;32;20441;-69
2021/12/12 06:22:06;;;;;;;25.88;10.00;;;;;;;-0.94;83.68;100429.94;4420328;32;20169;-69
2021/12/12 06:24:34;;;;;;;23.77;10.82;;;;;;;-0.94;83.60;100448.06;4405656;32;20081;-69
2021/12/12 06:27:11;;;;;;;20.60;7.22;;;;;;;-0.95;83.50;100436.81;4420237;32;20094;-69
2021/12/12 06:29:41;;;;;;;24.42;9.70;;;;;;;-0.90;83.21;100449.91;4420408;32;20198;-70
2021/12/12 06:32:08;;;;;;;15.68;7.53;;;;;;;-0.93;83.17;100463.59;4420233;32;20097;-70
2021/12/12 06:34:35;;;;;;;11.48;6.68;;;;;;;-0.90;82.93;100455.97;4420313;32;20459;-69
2021/12/12 06:37:04;;;;;;;22.42;7.68;;;;;;;-0.88;82.77;100471.53;4420212;31;20189;-69
2021/12/12 06:39:37;;;;;;;17.12;8.35;;;;;;;-0.85;82.67;100451.84;4420180;32;20094;-69
2021/12/12 06:42:07;;;;;;;14.87;7.57;;;;;;;-0.83;82.42;100455.34;4420072;32;20514;-70
2021/12/12 06:44:38;;;;;;;17.02;7.35;;;;;;;-0.82;82.26;100430.34;4420074;32;20493;-69
2021/12/12 06:47:08;;;;;;;17.37;9.00;;;;;;;-0.81;82.20;100430.44;4420301;32;20489;-70
2021/12/12 06:49:37;;;;;;;14.40;7.37;;;;;;;-0.81;82.23;100445.94;4419742;32;20142;-70
2021/12/12 06:52:07;;;;;;;18.60;8.63;;;;;;;-0.77;82.00;100442.62;4419814;32;20094;-70
2021/12/12 06:54:35;;;;;;;18.20;8.57;;;;;;;-0.76;82.04;100444.37;4419813;32;20496;-70
2021/12/12 06:57:09;;;;;;;16.37;7.75;;;;;;;-0.78;82.02;100468.44;4419737;32;20097;-70
2021/12/12 06:59:39;;;;;;;14.40;7.28;;;;;;;-0.69;81.66;100449.78;4419707;32;20117;-70
2021/12/12 07:02:07;;;;;;;18.45;8.15;;;;;;;-0.67;81.56;100449.00;4419892;32;20098;-70
2021/12/12 07:04:37;;;;;;;11.52;5.72;;;;;;;-0.66;81.47;100465.41;4419726;32;20115;-70
2021/12/12 07:07:07;;;;;;;18.70;7.82;;;;;;;-0.65;81.44;100464.56;4419982;32;21282;-70
2021/12/12 07:09:36;;;;;;;14.00;6.43;;;;;;;-0.62;80.97;100470.75;4419571;32;20120;-70
2021/12/12 07:12:06;;;;;;;16.27;7.93;;;;;;;-0.62;81.11;100481.09;4420503;32;20527;-70
2021/12/12 07:14:35;;;;;;;17.60;6.57;;;;;;;-0.63;81.22;100469.00;4422158;32;20159;-70
2021/12/12 07:17:03;;;;;;;12.65;6.10;;;;;;;-0.67;81.59;100458.44;4422087;32;20136;-70
2021/12/12 07:19:32;;;;;;;13.43;6.32;;;;;;;-0.59;81.02;100457.03;4422158;32;20093;-70
2021/12/12 07:22:00;;;;;;;15.98;6.97;;;;;;;-0.59;81.11;100470.84;4422073;32;20105;-70
2021/12/12 07:24:30;;;;;;;8.90;5.68;;;;;;;-0.57;80.84;100466.59;4421901;32;20081;-70
2021/12/12 07:27:01;;;;;;;18.95;7.15;;;;;;;-0.54;80.68;100458.94;4421946;32;20093;-70
2021/12/12 07:29:29;;;;;;;14.70;6.55;;;;;;;-0.51;80.36;100468.50;4422041;32;20135;-70
2021/12/12 07:31:57;;;;;;;14.13;7.10;;;;;;;-0.55;80.69;100464.06;4421937;32;20094;-70
2021/12/12 07:34:26;;;;;;;11.32;5.85;;;;;;;-0.55;80.78;100477.00;4422036;32;20085;-70
2021/12/12 07:36:59;;;;;;;11.30;6.30;;;;;;;-0.56;80.79;100458.03;4422146;32;20110;-70
2021/12/12 07:39:30;;;;;;;15.80;6.25;;;;;;;-0.54;80.53;100458.06;4421848;32;20401;-70
2021/12/12 07:42:01;;;;;;;12.32;5.03;;;;;;;-0.51;80.57;100469.38;4421988;32;20098;-70
2021/12/12 07:44:31;;;;;;;12.10;6.37;;;;;;;-0.47;80.13;100460.03;4422028;32;20141;-70
2021/12/12 07:46:58;;;;;;;12.43;5.80;;;;;;;-0.47;80.29;100467.78;4421864;32;20567;-70
2021/12/12 07:49:49;;;;;;;13.93;6.47;;;;;;;-0.46;80.03;100461.78;4421845;32;20093;-70
2021/12/12 07:52:20;;;;;;;21.33;7.97;;;;;;;-0.39;79.46;100462.84;4422030;32;20551;-70
2021/12/12 07:54:49;;;;;;;10.68;5.75;;;;;;;-0.35;79.46;100464.75;4421922;32;20090;-70
2021/12/12 07:57:18;;;;;;;10.55;4.97;;;;;;;-0.33;79.06;100465.66;4421534;32;20089;-70
2021/12/12 07:59:46;;;;;;;11.00;5.03;;;;;;;-0.28;79.24;100479.66;4421643;32;20093;-70
2021/12/12 08:02:15;;;;;;;6.25;3.75;;;;;;;-0.27;79.03;100474.50;4421321;31;20105;-70
2021/12/12 08:04:44;;;;;;;23.48;5.68;;;;;;;-0.20;78.57;100470.44;4421359;32;20529;-70
2021/12/12 08:07:14;;;;;;;31.48;4.95;;;;;;;-0.17;78.58;100480.00;4421632;32;20478;-70
2021/12/12 08:09:43;;;;;;;15.95;7.90;;;;;;;-0.18;78.40;100478.22;4421653;31;20090;-70
2021/12/12 08:12:15;;;;;;;9.07;5.37;;;;;;;-0.16;78.74;100480.03;4421674;32;20097;-70
2021/12/12 08:14:43;;;;;;;11.50;5.43;;;;;;;-0.11;77.87;100475.00;4421735;32;20462;-70
2021/12/12 08:17:12;;;;;;;6.93;4.72;;;;;;;-0.09;78.17;100483.72;4421599;32;20444;-70
2021/12/12 08:19:40;;;;;;;11.88;5.75;;;;;;;-0.06;77.71;100482.13;4421436;32;20772;-70
2021/12/12 08:22:09;;;;;;;14.73;6.85;;;;;;;-0.04;77.85;100488.19;4421596;32;20094;-70
2021/12/12 08:24:39;;;;;;;8.07;5.10;;;;;;;0.01;77.67;100501.31;4420697;32;20128;-70
2021/12/12 08:27:09;;;;;;;9.43;5.03;;;;;;;0.05;77.29;100494.53;4421252;32;20412;-70
2021/12/12 08:29:37;;;;;;;13.38;6.62;;;;;;;0.14;77.07;100498.31;4421337;32;20158;-70
2021/12/12 08:32:11;;;;;;;6.35;4.22;;;;;;;0.18;76.81;100504.47;4421291;32;20101;-70
2021/12/12 08:34:58;;;;;;;13.90;6.35;;;;;;;0.21;76.71;100501.94;4421469;32;20459;-70
2021/12/12 08:37:30;;;;;;;16.45;5.53;;;;;;;0.23;76.32;100503.75;4421428;32;20097;-70
2021/12/12 08:39:57;;;;;;;6.90;3.92;;;;;;;0.28;76.68;100509.06;4421295;32;20089;-70
2021/12/12 08:42:27;;;;;;;13.48;5.00;;;;;;;0.39;76.02;100509.41;4421299;32;20106;-70
2021/12/12 08:44:56;;;;;;;9.48;4.20;;;;;;;0.44;75.63;100506.16;4421609;32;20111;-70
2021/12/12 08:47:24;;;;;;;6.35;4.50;;;;;;;0.48;75.56;100500.22;4421159;32;20098;-70
2021/12/12 08:49:52;;;;;;;11.25;5.62;;;;;;;0.57;75.54;100509.13;4420949;32;20114;-70
2021/12/12 08:52:30;;;;;;;14.60;7.82;;;;;;;0.60;74.86;100511.78;4421265;32;20106;-70
2021/12/12 08:55:00;;;;;;;13.57;6.97;;;;;;;0.67;75.25;100492.97;4421319;32;20490;-70
2021/12/12 08:57:58;;;;;;;10.05;5.57;;;;;;;0.79;74.74;100501.13;4421096;32;20093;-70
2021/12/12 09:00:40;;;;;;;13.48;6.43;;;;;;;0.84;74.12;100501.25;4421221;32;20342;-70
2021/12/12 09:03:09;;;;;;;8.85;4.50;;;;;;;0.91;73.60;100498.88;4421228;32;20527;-70
2021/12/12 09:05:40;;;;;;;11.10;5.00;;;;;;;0.94;73.16;100495.50;4421076;32;20100;-70
2021/12/12 09:08:23;;;;;;;6.82;4.35;;;;;;;1.00;73.11;100497.41;4421179;32;20145;-70
2021/12/12 09:11:20;;;;;;;16.10;5.28;;;;;;;0.99;73.11;100504.31;4421089;32;20143;-72
2021/12/12 09:13:54;;;;;;;10.15;5.18;;;;;;;1.09;72.97;100502.84;4412809;32;20120;-70
2021/12/12 09:16:26;;;;;;;8.77;4.90;;;;;;;1.15;72.12;100518.59;4420971;32;20093;-70
2021/12/12 09:19:01;;;;;;;6.37;4.40;;;;;;;1.19;72.46;100513.53;4421181;32;20158;-70
2021/12/12 09:22:18;;;;;;;7.68;4.05;;;;;;;1.21;71.86;100510.12;4421288;32;20109;-70
2021/12/12 09:25:03;;;;;;;8.90;4.47;;;;;;;1.30;72.18;100510.34;4342296;32;20486;-70
2021/12/12 09:27:48;;;;;;;9.23;4.07;;;;;;;1.33;71.79;100493.12;4342431;32;20095;-70
2021/12/12 09:30:24;;;;;;;4.78;2.42;;;;;;;1.32;71.54;100483.59;4405024;32;20134;-69
2021/12/12 09:33:18;;;;;;;6.18;3.70;;;;;;;1.43;71.42;100494.28;4406985;32;20200;-70
2021/12/12 09:35:48;;;;;;;8.18;4.47;;;;;;;1.52;70.94;100496.22;4420024;32;20093;-70
2021/12/12 09:38:36;;;;;;;7.78;4.87;;;;;;;1.54;71.02;100485.03;4420950;32;20124;-70
2021/12/12 09:41:11;;;;;;;4.85;3.12;;;;;;;1.65;70.75;100491.37;4420958;32;20108;-70
2021/12/12 09:44:13;;;;;;;7.95;3.70;;;;;;;1.70;70.58;100494.13;4420662;32;20131;-70
2021/12/12 09:47:13;;;;;;;12.13;3.90;;;;;;;1.72;70.27;100469.06;4390955;32;20089;-70
2021/12/12 09:53:20;;;;;;;7.25;3.37;;;;;;;1.73;70.25;100491.59;4421060;32;20327;-72
2021/12/12 09:55:57;;;;;;;4.60;3.28;;;;;;;1.81;70.49;100491.81;4395267;32;20128;-70
2021/12/12 09:58:55;;;;;;;10.60;4.37;;;;;;;1.79;70.28;100473.56;4421000;32;20541;-70
2021/12/12 10:01:48;;;;;;;11.02;4.78;;;;;;;1.90;70.11;100485.09;4420632;32;20190;-70
2021/12/12 10:04:28;;;;;;;6.12;2.75;;;;;;;1.96;70.11;100491.31;4408022;32;20105;-70
2021/12/12 10:07:15;;;;;;;5.30;3.20;;;;;;;1.97;69.68;100503.44;4420745;32;20097;-70
2021/12/12 10:09:46;;;;;;;7.70;3.97;;;;;;;1.95;69.86;100494.75;4420621;32;20115;-70
2021/12/12 10:12:17;;;;;;;9.82;3.80;;;;;;;2.00;69.76;100480.13;4420579;32;20109;-70
2021/12/12 10:14:53;;;;;;;5.75;3.22;;;;;;;2.00;69.47;100491.41;4420754;32;20513;-70
2021/12/12 10:18:02;;;;;;;5.95;2.83;;;;;;;2.21;69.34;100482.38;4420480;32;20101;-70
2021/12/12 10:20:37;;;;;;;10.15;4.55;;;;;;;2.48;68.03;100498.59;4420604;32;20136;-70
2021/12/12 10:23:16;;;;;;;9.00;4.95;;;;;;;2.53;67.38;100490.91;4420304;32;20101;-70
2021/12/12 10:26:06;;;;;;;11.65;3.37;;;;;;;2.77;67.19;100487.97;4406130;32;20120;-70
2021/12/12 10:29:01;;;;;;;10.80;4.60;;;;;;;2.90;66.57;100489.97;4420580;32;20077;-70
2021/12/12 10:31:47;;;;;;;5.30;3.20;;;;;;;3.06;65.87;100481.63;4420501;32;20184;-70
2021/12/12 10:34:48;;;;;;;5.00;3.50;;;;;;;3.02;65.96;100486.75;4420339;32;20082;-70
2021/12/12 10:37:23;;;;;;;5.62;3.60;;;;;;;3.14;65.61;100473.94;4420200;32;20094;-70
2021/12/12 10:40:15;;;;;;;5.72;4.15;;;;;;;3.07;65.50;100487.69;4420022;32;20132;-70
2021/12/12 10:42:47;;;;;;;10.48;3.65;;;;;;;3.01;66.15;100485.00;4420303;32;20098;-70
2021/12/12 10:45:22;;;;;;;5.20;3.50;;;;;;;3.17;65.03;100480.94;4420187;32;20395;-70
2021/12/12 10:48:18;;;;;;;10.00;4.62;;;;;;;3.17;64.86;100486.16;4421542;32;20082;-70
2021/12/12 10:51:00;;;;;;;7.47;4.00;;;;;;;3.63;64.75;100482.69;4420563;32;20169;-70
2021/12/12 10:53:42;;;;;;;5.65;4.07;;;;;;;3.80;63.22;100452.59;4422372;32;20191;-70
2021/12/12 10:56:28;;;;;;;6.35;3.10;;;;;;;3.76;62.30;100465.53;4422452;32;20543;-70
2021/12/12 10:59:00;;;;;;;3.75;2.97;;;;;;;3.76;62.75;100487.28;4422354;32;20089;-70
2021/12/12 11:01:38;;;;;;;10.23;3.70;;;;;;;3.65;62.47;100485.34;4422386;32;20158;-70
2021/12/12 11:04:42;;;;;;;5.25;2.97;;;;;;;3.80;62.59;100491.69;4422362;32;20093;-70
2021/12/12 11:07:20;;;;;;;6.85;3.60;;;;;;;4.04;61.54;100470.34;4409374;32;20102;-70
2021/12/12 11:10:02;;;;;;;3.35;2.08;;;;;;;4.36;60.44;100474.31;4422204;32;20140;-70
2021/12/12 11:12:35;;;;;;;4.12;2.20;;;;;;;4.83;58.78;100476.69;4422216;32;20156;-70
2021/12/12 11:15:19;;;;;;;8.07;3.50;;;;;;;5.10;57.41;100468.34;4422391;32;20156;-70
2021/12/12 11:18:08;;;;;;;5.00;3.33;;;;;;;5.18;57.46;100464.94;4422312;32;20069;-70
2021/12/12 11:20:42;;;;;;;3.87;2.60;;;;;;;5.63;56.31;100471.50;4422270;32;20161;-70
2021/12/12 11:23:25;;;;;;;4.57;2.62;;;;;;;5.36;56.24;100466.00;4421997;32;20128;-69
2021/12/12 11:26:01;;;;;;;4.97;3.20;;;;;;;5.09;57.30;100463.94;4422187;32;20085;-70
2021/12/12 11:28:43;;;;;;;8.13;3.85;;;;;;;5.42;56.33;100471.31;4422158;32;20086;-70
2021/12/12 11:31:16;;;;;;;5.35;3.33;;;;;;;5.82;55.69;100466.44;4422008;32;20108;-70
2021/12/12 11:33:48;;;;;;;5.35;3.42;;;;;;;5.72;55.85;100455.03;4421961;32;20089;-70
2021/12/12 11:36:24;;;;;;;11.15;4.15;;;;;;;5.85;54.80;100461.25;4422039;32;20094;-70
2021/12/12 11:39:10;;;;;;;13.67;3.83;;;;;;;6.11;54.91;100451.91;4422272;32;20795;-70
2021/12/12 11:41:59;;;;;;;4.47;3.03;;;;;;;6.10;54.23;100468.44;4422168;32;20581;-70
2021/12/12 11:44:38;;;;;;;4.53;3.05;;;;;;;6.07;54.30;100463.19;4421959;32;20150;-70
2021/12/12 11:47:15;;;;;;;4.30;2.83;;;;;;;6.49;53.30;100448.66;4421856;32;20467;-70
2021/12/12 11:49:42;;;;;;;;;;;;;;;6.76;52.15;100441.81;4422380;32;20526;-70
2021/12/12 11:52:13;;;;;;;;;;;;;;;7.09;51.49;100447.16;4422487;32;20018;-70
2021/12/12 11:54:47;;;;;;;5.62;2.85;;;;;;;6.62;52.48;100454.84;4421936;32;19984;-70
2021/12/12 11:57:24;;;;;;;6.50;2.92;;;;;;;6.47;52.55;100459.12;4407675;32;20113;-70
2021/12/12 12:00:17;;;;;;;7.75;4.20;;;;;;;6.47;52.76;100458.25;4420983;32;20089;-70
2021/12/12 12:03:27;;;;;;;4.55;2.70;;;;;;;6.90;52.03;100459.34;4421910;32;20544;-70
2021/12/12 12:06:12;;;;;;;3.60;2.47;;;;;;;7.25;50.29;100440.25;4385039;32;20101;-70
2021/12/12 12:09:12;;;;;;;8.75;2.72;;;;;;;7.12;50.90;100455.03;4421912;32;20097;-70
2021/12/12 12:12:08;;;;;;;4.90;2.60;;;;;;;7.14;50.96;100448.06;4421976;32;20115;-70
2021/12/12 12:14:52;;;;;;;5.95;2.80;;;;;;;7.24;50.32;100456.81;4421599;32;20085;-70
2021/12/12 12:17:31;;;;;;;8.57;3.55;;;;;;;6.84;51.01;100438.34;4421794;32;20445;-70